sensor_id;sensor_type;location;lat;lon;timestamp;P1;durP1;ratioP1;P2;durP2;ratioP2
45887;SDS011;31595;51.418;7.572;2022-11-30T00:00:55;36.03;;;20.45;;
45887;SDS011;31595;51.418;7.572;2022-11-30T00:03:23;36.22;;;20.95;;
45887;SDS011;31595;51.418;7.572;2022-11-30T00:05:51;44.60;;;23.00;;
45887;SDS011;31595;51.418;7.572;2022-11-30T00:08:18;38.00;;;22.00;;
45887;SDS011;31595;51.418;7.572;2022-11-30T00:10:45;40.60;;;22.73;;
45887;SDS011;31595;51.418;7.572;2022-11-30T00:13:16;37.55;;;21.42;;
45887;SDS011;31595;51.418;7.572;2022-11-30T00:15:48;37.20;;;21.58;;
45887;SDS011;31595;51.418;7.572;2022-11-30T00:18:16;40.45;;;22.15;;
45887;SDS011;31595;51.418;7.572;2022-11-30T00:20:44;37.35;;;20.20;;
45887;SDS011;31595;51.418;7.572;2022-11-30T00:23:14;41.53;;;22.42;;
45887;SDS011;31595;51.418;7.572;2022-11-30T00:25:42;44.97;;;23.80;;
45887;SDS011;31595;51.418;7.572;2022-11-30T00:28:09;43.42;;;22.05;;
45887;SDS011;31595;51.418;7.572;2022-11-30T00:30:36;44.55;;;23.27;;
45887;SDS011;31595;51.418;7.572;2022-11-30T00:33:03;37.92;;;21.85;;
45887;SDS011;31595;51.418;7.572;2022-11-30T00:35:32;51.38;;;24.98;;
45887;SDS011;31595;51.418;7.572;2022-11-30T00:38:00;49.03;;;23.90;;
45887;SDS011;31595;51.418;7.572;2022-11-30T00:40:27;47.75;;;24.98;;
45887;SDS011;31595;51.418;7.572;2022-11-30T00:42:55;43.33;;;23.05;;
45887;SDS011;31595;51.418;7.572;2022-11-30T00:45:22;51.58;;;25.27;;
45887;SDS011;31595;51.418;7.572;2022-11-30T00:47:49;48.13;;;24.52;;
45887;SDS011;31595;51.418;7.572;2022-11-30T00:50:18;43.70;;;23.25;;
45887;SDS011;31595;51.418;7.572;2022-11-30T00:52:50;57.20;;;26.60;;
45887;SDS011;31595;51.418;7.572;2022-11-30T00:55:17;50.70;;;24.00;;
45887;SDS011;31595;51.418;7.572;2022-11-30T00:57:45;50.85;;;25.38;;
45887;SDS011;31595;51.418;7.572;2022-11-30T01:00:12;58.47;;;27.88;;
45887;SDS011;31595;51.418;7.572;2022-11-30T01:02:40;50.35;;;24.98;;
45887;SDS011;31595;51.418;7.572;2022-11-30T01:05:07;48.13;;;24.30;;
45887;SDS011;31595;51.418;7.572;2022-11-30T01:07:37;47.60;;;25.23;;
45887;SDS011;31595;51.418;7.572;2022-11-30T01:10:07;54.47;;;27.38;;
45887;SDS011;31595;51.418;7.572;2022-11-30T01:12:37;47.88;;;24.20;;
45887;SDS011;31595;51.418;7.572;2022-11-30T01:15:04;59.60;;;28.80;;
45887;SDS011;31595;51.418;7.572;2022-11-30T01:17:32;51.03;;;25.67;;
45887;SDS011;31595;51.418;7.572;2022-11-30T01:19:59;58.20;;;28.67;;
45887;SDS011;31595;51.418;7.572;2022-11-30T01:22:28;56.60;;;27.73;;
45887;SDS011;31595;51.418;7.572;2022-11-30T01:24:55;56.92;;;29.33;;
45887;SDS011;31595;51.418;7.572;2022-11-30T01:27:24;68.80;;;28.88;;
45887;SDS011;31595;51.418;7.572;2022-11-30T01:29:51;60.58;;;27.60;;
45887;SDS011;31595;51.418;7.572;2022-11-30T01:32:19;64.65;;;28.80;;
45887;SDS011;31595;51.418;7.572;2022-11-30T01:34:46;56.30;;;26.92;;
45887;SDS011;31595;51.418;7.572;2022-11-30T01:37:16;75.50;;;31.10;;
45887;SDS011;31595;51.418;7.572;2022-11-30T01:39:44;62.35;;;26.88;;
45887;SDS011;31595;51.418;7.572;2022-11-30T01:42:12;61.15;;;28.75;;
45887;SDS011;31595;51.418;7.572;2022-11-30T01:44:52;58.53;;;29.40;;
45887;SDS011;31595;51.418;7.572;2022-11-30T01:47:23;71.82;;;30.25;;
45887;SDS011;31595;51.418;7.572;2022-11-30T01:49:55;66.65;;;30.15;;
45887;SDS011;31595;51.418;7.572;2022-11-30T01:52:31;55.80;;;27.38;;
45887;SDS011;31595;51.418;7.572;2022-11-30T01:55:04;76.07;;;30.50;;
45887;SDS011;31595;51.418;7.572;2022-11-30T01:57:35;80.90;;;29.58;;
45887;SDS011;31595;51.418;7.572;2022-11-30T02:00:12;78.55;;;31.90;;
45887;SDS011;31595;51.418;7.572;2022-11-30T02:02:42;63.03;;;28.23;;
45887;SDS011;31595;51.418;7.572;2022-11-30T02:05:16;65.63;;;29.27;;
45887;SDS011;31595;51.418;7.572;2022-11-30T02:07:44;66.97;;;30.63;;
45887;SDS011;31595;51.418;7.572;2022-11-30T02:10:16;76.80;;;32.35;;
45887;SDS011;31595;51.418;7.572;2022-11-30T02:12:48;71.25;;;30.02;;
45887;SDS011;31595;51.418;7.572;2022-11-30T02:15:43;69.00;;;30.52;;
45887;SDS011;31595;51.418;7.572;2022-11-30T02:18:21;90.32;;;33.28;;
45887;SDS011;31595;51.418;7.572;2022-11-30T02:20:55;62.83;;;28.45;;
45887;SDS011;31595;51.418;7.572;2022-11-30T02:23:41;57.33;;;27.95;;
45887;SDS011;31595;51.418;7.572;2022-11-30T02:26:29;60.20;;;27.83;;
45887;SDS011;31595;51.418;7.572;2022-11-30T02:29:16;59.75;;;28.45;;
45887;SDS011;31595;51.418;7.572;2022-11-30T02:31:47;52.58;;;25.17;;
45887;SDS011;31595;51.418;7.572;2022-11-30T02:34:21;55.92;;;26.55;;
45887;SDS011;31595;51.418;7.572;2022-11-30T02:36:52;50.60;;;24.90;;
45887;SDS011;31595;51.418;7.572;2022-11-30T02:39:21;46.75;;;23.92;;
45887;SDS011;31595;51.418;7.572;2022-11-30T02:41:48;48.47;;;24.75;;
45887;SDS011;31595;51.418;7.572;2022-11-30T02:44:17;38.72;;;20.98;;
45887;SDS011;31595;51.418;7.572;2022-11-30T02:46:50;39.10;;;21.40;;
45887;SDS011;31595;51.418;7.572;2022-11-30T02:49:27;33.55;;;20.13;;
45887;SDS011;31595;51.418;7.572;2022-11-30T02:51:58;38.20;;;20.73;;
45887;SDS011;31595;51.418;7.572;2022-11-30T02:54:27;36.83;;;20.38;;
45887;SDS011;31595;51.418;7.572;2022-11-30T02:56:54;37.17;;;20.52;;
45887;SDS011;31595;51.418;7.572;2022-11-30T02:59:24;32.65;;;19.40;;
45887;SDS011;31595;51.418;7.572;2022-11-30T03:01:52;33.03;;;19.50;;
45887;SDS011;31595;51.418;7.572;2022-11-30T03:04:19;34.50;;;19.48;;
45887;SDS011;31595;51.418;7.572;2022-11-30T03:06:52;35.28;;;18.73;;
45887;SDS011;31595;51.418;7.572;2022-11-30T03:09:19;28.27;;;18.02;;
45887;SDS011;31595;51.418;7.572;2022-11-30T03:11:52;34.17;;;19.65;;
45887;SDS011;31595;51.418;7.572;2022-11-30T03:14:19;29.20;;;17.35;;
45887;SDS011;31595;51.418;7.572;2022-11-30T03:16:48;35.92;;;21.08;;
45887;SDS011;31595;51.418;7.572;2022-11-30T03:19:15;35.05;;;21.77;;
45887;SDS011;31595;51.418;7.572;2022-11-30T03:21:42;40.13;;;24.85;;
45887;SDS011;31595;51.418;7.572;2022-11-30T03:24:10;43.13;;;25.27;;
45887;SDS011;31595;51.418;7.572;2022-11-30T03:26:37;39.05;;;24.83;;
45887;SDS011;31595;51.418;7.572;2022-11-30T03:29:04;42.50;;;26.70;;
45887;SDS011;31595;51.418;7.572;2022-11-30T03:31:32;35.92;;;22.70;;
45887;SDS011;31595;51.418;7.572;2022-11-30T03:34:00;32.80;;;20.92;;
45887;SDS011;31595;51.418;7.572;2022-11-30T03:36:27;30.73;;;20.15;;
45887;SDS011;31595;51.418;7.572;2022-11-30T03:38:56;28.20;;;19.15;;
45887;SDS011;31595;51.418;7.572;2022-11-30T03:41:23;27.75;;;17.83;;
45887;SDS011;31595;51.418;7.572;2022-11-30T03:43:50;24.80;;;15.35;;
45887;SDS011;31595;51.418;7.572;2022-11-30T03:46:19;25.42;;;15.93;;
45887;SDS011;31595;51.418;7.572;2022-11-30T03:48:46;24.33;;;15.77;;
45887;SDS011;31595;51.418;7.572;2022-11-30T03:51:15;25.40;;;17.10;;
45887;SDS011;31595;51.418;7.572;2022-11-30T03:53:42;22.05;;;14.57;;
45887;SDS011;31595;51.418;7.572;2022-11-30T03:56:09;22.20;;;15.50;;
45887;SDS011;31595;51.418;7.572;2022-11-30T03:58:38;24.75;;;15.98;;
45887;SDS011;31595;51.418;7.572;2022-11-30T04:01:07;25.13;;;16.73;;
45887;SDS011;31595;51.418;7.572;2022-11-30T04:03:37;29.38;;;18.73;;
45887;SDS011;31595;51.418;7.572;2022-11-30T04:06:05;33.00;;;18.15;;
45887;SDS011;31595;51.418;7.572;2022-11-30T04:08:34;35.60;;;20.02;;
45887;SDS011;31595;51.418;7.572;2022-11-30T04:11:03;36.58;;;21.35;;
45887;SDS011;31595;51.418;7.572;2022-11-30T04:13:31;33.47;;;20.10;;
45887;SDS011;31595;51.418;7.572;2022-11-30T04:16:00;35.90;;;21.55;;
45887;SDS011;31595;51.418;7.572;2022-11-30T04:18:28;27.30;;;19.83;;
45887;SDS011;31595;51.418;7.572;2022-11-30T04:20:56;28.75;;;19.20;;
45887;SDS011;31595;51.418;7.572;2022-11-30T04:23:27;27.13;;;19.03;;
45887;SDS011;31595;51.418;7.572;2022-11-30T04:25:57;31.00;;;21.27;;
45887;SDS011;31595;51.418;7.572;2022-11-30T04:28:25;30.50;;;20.55;;
45887;SDS011;31595;51.418;7.572;2022-11-30T04:30:53;31.27;;;20.30;;
45887;SDS011;31595;51.418;7.572;2022-11-30T04:33:20;35.05;;;23.17;;
45887;SDS011;31595;51.418;7.572;2022-11-30T04:35:48;36.35;;;22.38;;
45887;SDS011;31595;51.418;7.572;2022-11-30T04:38:18;29.63;;;21.45;;
45887;SDS011;31595;51.418;7.572;2022-11-30T04:40:46;34.95;;;22.73;;
45887;SDS011;31595;51.418;7.572;2022-11-30T04:43:14;30.73;;;21.73;;
45887;SDS011;31595;51.418;7.572;2022-11-30T04:45:42;31.05;;;20.67;;
45887;SDS011;31595;51.418;7.572;2022-11-30T04:48:10;33.15;;;23.20;;
45887;SDS011;31595;51.418;7.572;2022-11-30T04:50:38;33.78;;;23.92;;
45887;SDS011;31595;51.418;7.572;2022-11-30T04:53:06;30.75;;;23.02;;
45887;SDS011;31595;51.418;7.572;2022-11-30T04:55:34;34.00;;;21.92;;
45887;SDS011;31595;51.418;7.572;2022-11-30T04:58:02;32.00;;;21.70;;
45887;SDS011;31595;51.418;7.572;2022-11-30T05:00:31;33.30;;;24.08;;
45887;SDS011;31595;51.418;7.572;2022-11-30T05:02:58;33.65;;;23.05;;
45887;SDS011;31595;51.418;7.572;2022-11-30T05:05:26;29.50;;;20.10;;
45887;SDS011;31595;51.418;7.572;2022-11-30T05:07:54;32.00;;;22.52;;
45887;SDS011;31595;51.418;7.572;2022-11-30T05:10:23;29.67;;;20.02;;
45887;SDS011;31595;51.418;7.572;2022-11-30T05:12:50;27.88;;;19.88;;
45887;SDS011;31595;51.418;7.572;2022-11-30T05:15:18;31.45;;;21.17;;
45887;SDS011;31595;51.418;7.572;2022-11-30T05:17:47;26.48;;;18.23;;
45887;SDS011;31595;51.418;7.572;2022-11-30T05:20:14;28.05;;;21.02;;
45887;SDS011;31595;51.418;7.572;2022-11-30T05:22:42;32.70;;;23.45;;
45887;SDS011;31595;51.418;7.572;2022-11-30T05:25:09;36.05;;;22.33;;
45887;SDS011;31595;51.418;7.572;2022-11-30T05:27:36;31.50;;;22.00;;
45887;SDS011;31595;51.418;7.572;2022-11-30T05:30:04;36.55;;;24.23;;
45887;SDS011;31595;51.418;7.572;2022-11-30T05:32:32;31.08;;;21.42;;
45887;SDS011;31595;51.418;7.572;2022-11-30T05:35:02;30.85;;;23.27;;
45887;SDS011;31595;51.418;7.572;2022-11-30T05:37:29;32.97;;;24.48;;
45887;SDS011;31595;51.418;7.572;2022-11-30T05:39:57;33.22;;;23.40;;
45887;SDS011;31595;51.418;7.572;2022-11-30T05:42:24;33.80;;;24.38;;
45887;SDS011;31595;51.418;7.572;2022-11-30T05:44:52;34.45;;;24.05;;
45887;SDS011;31595;51.418;7.572;2022-11-30T05:47:20;32.47;;;22.27;;
45887;SDS011;31595;51.418;7.572;2022-11-30T05:49:47;29.65;;;21.60;;
45887;SDS011;31595;51.418;7.572;2022-11-30T05:52:16;31.50;;;21.50;;
45887;SDS011;31595;51.418;7.572;2022-11-30T05:54:43;32.75;;;23.10;;
45887;SDS011;31595;51.418;7.572;2022-11-30T05:57:10;29.48;;;20.60;;
45887;SDS011;31595;51.418;7.572;2022-11-30T05:59:37;29.83;;;20.80;;
45887;SDS011;31595;51.418;7.572;2022-11-30T06:02:04;31.63;;;21.60;;
45887;SDS011;31595;51.418;7.572;2022-11-30T06:04:32;29.73;;;20.92;;
45887;SDS011;31595;51.418;7.572;2022-11-30T06:06:59;28.08;;;22.30;;
45887;SDS011;31595;51.418;7.572;2022-11-30T06:09:28;31.25;;;22.15;;
45887;SDS011;31595;51.418;7.572;2022-11-30T06:11:56;31.30;;;22.07;;
45887;SDS011;31595;51.418;7.572;2022-11-30T06:14:23;27.55;;;19.60;;
45887;SDS011;31595;51.418;7.572;2022-11-30T06:16:50;30.10;;;21.38;;
45887;SDS011;31595;51.418;7.572;2022-11-30T06:19:18;28.88;;;20.77;;
45887;SDS011;31595;51.418;7.572;2022-11-30T06:21:45;29.40;;;21.27;;
45887;SDS011;31595;51.418;7.572;2022-11-30T06:24:12;27.05;;;19.15;;
45887;SDS011;31595;51.418;7.572;2022-11-30T06:26:41;32.20;;;22.60;;
45887;SDS011;31595;51.418;7.572;2022-11-30T06:29:08;30.77;;;21.10;;
45887;SDS011;31595;51.418;7.572;2022-11-30T06:31:35;29.23;;;20.88;;
45887;SDS011;31595;51.418;7.572;2022-11-30T06:34:02;30.35;;;21.33;;
45887;SDS011;31595;51.418;7.572;2022-11-30T06:36:30;28.38;;;20.52;;
45887;SDS011;31595;51.418;7.572;2022-11-30T06:38:57;30.23;;;21.33;;
45887;SDS011;31595;51.418;7.572;2022-11-30T06:41:24;31.55;;;22.70;;
45887;SDS011;31595;51.418;7.572;2022-11-30T06:43:53;29.25;;;20.92;;
45887;SDS011;31595;51.418;7.572;2022-11-30T06:46:20;28.67;;;21.00;;
45887;SDS011;31595;51.418;7.572;2022-11-30T06:48:48;28.63;;;20.25;;
45887;SDS011;31595;51.418;7.572;2022-11-30T06:51:16;28.83;;;20.98;;
45887;SDS011;31595;51.418;7.572;2022-11-30T06:53:43;30.45;;;20.98;;
45887;SDS011;31595;51.418;7.572;2022-11-30T06:56:11;28.60;;;19.25;;
45887;SDS011;31595;51.418;7.572;2022-11-30T06:58:38;28.60;;;19.98;;
45887;SDS011;31595;51.418;7.572;2022-11-30T07:01:08;26.73;;;18.83;;
45887;SDS011;31595;51.418;7.572;2022-11-30T07:03:37;28.35;;;19.75;;
45887;SDS011;31595;51.418;7.572;2022-11-30T07:06:07;26.63;;;19.80;;
45887;SDS011;31595;51.418;7.572;2022-11-30T07:08:36;27.50;;;19.08;;
45887;SDS011;31595;51.418;7.572;2022-11-30T07:11:04;27.65;;;19.45;;
45887;SDS011;31595;51.418;7.572;2022-11-30T07:13:33;27.00;;;18.90;;
45887;SDS011;31595;51.418;7.572;2022-11-30T07:16:02;30.17;;;21.73;;
45887;SDS011;31595;51.418;7.572;2022-11-30T07:18:31;27.95;;;20.15;;
45887;SDS011;31595;51.418;7.572;2022-11-30T07:21:00;28.63;;;19.85;;
45887;SDS011;31595;51.418;7.572;2022-11-30T07:23:28;27.23;;;19.65;;
45887;SDS011;31595;51.418;7.572;2022-11-30T07:26:13;27.80;;;19.75;;
45887;SDS011;31595;51.418;7.572;2022-11-30T07:28:41;27.42;;;18.90;;
45887;SDS011;31595;51.418;7.572;2022-11-30T07:31:14;27.00;;;19.48;;
45887;SDS011;31595;51.418;7.572;2022-11-30T07:33:45;28.95;;;20.33;;
45887;SDS011;31595;51.418;7.572;2022-11-30T07:36:13;28.92;;;20.17;;
45887;SDS011;31595;51.418;7.572;2022-11-30T07:38:40;29.30;;;20.63;;
45887;SDS011;31595;51.418;7.572;2022-11-30T07:41:07;30.75;;;21.60;;
45887;SDS011;31595;51.418;7.572;2022-11-30T07:43:35;28.20;;;19.95;;
45887;SDS011;31595;51.418;7.572;2022-11-30T07:46:02;31.58;;;21.05;;
45887;SDS011;31595;51.418;7.572;2022-11-30T07:48:33;29.15;;;20.60;;
45887;SDS011;31595;51.418;7.572;2022-11-30T07:51:02;26.98;;;18.42;;
45887;SDS011;31595;51.418;7.572;2022-11-30T07:53:30;29.85;;;20.48;;
45887;SDS011;31595;51.418;7.572;2022-11-30T07:56:01;27.33;;;20.27;;
45887;SDS011;31595;51.418;7.572;2022-11-30T07:58:30;27.73;;;19.30;;
45887;SDS011;31595;51.418;7.572;2022-11-30T08:01:01;26.63;;;18.70;;
45887;SDS011;31595;51.418;7.572;2022-11-30T08:03:29;30.65;;;21.10;;
45887;SDS011;31595;51.418;7.572;2022-11-30T08:05:58;28.88;;;20.77;;
45887;SDS011;31595;51.418;7.572;2022-11-30T08:08:29;36.15;;;23.10;;
45887;SDS011;31595;51.418;7.572;2022-11-30T08:10:57;35.25;;;22.52;;
45887;SDS011;31595;51.418;7.572;2022-11-30T08:13:25;35.05;;;22.67;;
45887;SDS011;31595;51.418;7.572;2022-11-30T08:15:52;37.40;;;24.13;;
45887;SDS011;31595;51.418;7.572;2022-11-30T08:18:23;37.63;;;23.80;;
45887;SDS011;31595;51.418;7.572;2022-11-30T08:20:56;35.45;;;24.42;;
45887;SDS011;31595;51.418;7.572;2022-11-30T08:23:24;34.50;;;21.95;;
45887;SDS011;31595;51.418;7.572;2022-11-30T08:25:53;40.63;;;26.40;;
45887;SDS011;31595;51.418;7.572;2022-11-30T08:28:20;39.30;;;24.77;;
45887;SDS011;31595;51.418;7.572;2022-11-30T08:30:47;44.47;;;27.02;;
45887;SDS011;31595;51.418;7.572;2022-11-30T08:33:15;41.50;;;25.05;;
45887;SDS011;31595;51.418;7.572;2022-11-30T08:35:42;49.15;;;29.02;;
45887;SDS011;31595;51.418;7.572;2022-11-30T08:38:09;47.42;;;28.42;;
45887;SDS011;31595;51.418;7.572;2022-11-30T08:40:36;53.78;;;31.42;;
45887;SDS011;31595;51.418;7.572;2022-11-30T08:43:05;47.00;;;27.70;;
45887;SDS011;31595;51.418;7.572;2022-11-30T08:45:32;45.50;;;27.35;;
45887;SDS011;31595;51.418;7.572;2022-11-30T08:47:59;46.97;;;28.52;;
45887;SDS011;31595;51.418;7.572;2022-11-30T08:50:27;52.25;;;30.38;;
45887;SDS011;31595;51.418;7.572;2022-11-30T08:52:54;43.90;;;28.65;;
45887;SDS011;31595;51.418;7.572;2022-11-30T08:55:21;47.00;;;28.08;;
45887;SDS011;31595;51.418;7.572;2022-11-30T08:57:49;43.22;;;27.63;;
45887;SDS011;31595;51.418;7.572;2022-11-30T09:00:18;46.33;;;27.98;;
45887;SDS011;31595;51.418;7.572;2022-11-30T09:02:46;43.72;;;27.27;;
45887;SDS011;31595;51.418;7.572;2022-11-30T09:05:13;44.05;;;27.75;;
45887;SDS011;31595;51.418;7.572;2022-11-30T09:07:41;42.08;;;26.25;;
45887;SDS011;31595;51.418;7.572;2022-11-30T09:10:08;42.40;;;27.00;;
45887;SDS011;31595;51.418;7.572;2022-11-30T09:12:36;42.80;;;27.50;;
45887;SDS011;31595;51.418;7.572;2022-11-30T09:15:05;43.75;;;27.80;;
45887;SDS011;31595;51.418;7.572;2022-11-30T09:17:36;42.60;;;27.40;;
45887;SDS011;31595;51.418;7.572;2022-11-30T09:20:03;43.92;;;26.60;;
45887;SDS011;31595;51.418;7.572;2022-11-30T09:22:32;43.33;;;27.48;;
45887;SDS011;31595;51.418;7.572;2022-11-30T09:24:59;49.17;;;30.67;;
45887;SDS011;31595;51.418;7.572;2022-11-30T09:27:26;43.72;;;25.77;;
45887;SDS011;31595;51.418;7.572;2022-11-30T09:29:56;47.72;;;28.05;;
45887;SDS011;31595;51.418;7.572;2022-11-30T09:32:24;45.80;;;29.48;;
45887;SDS011;31595;51.418;7.572;2022-11-30T09:34:53;45.80;;;29.42;;
45887;SDS011;31595;51.418;7.572;2022-11-30T09:37:20;47.50;;;29.38;;
45887;SDS011;31595;51.418;7.572;2022-11-30T09:39:48;48.65;;;28.75;;
45887;SDS011;31595;51.418;7.572;2022-11-30T09:42:23;46.95;;;30.05;;
45887;SDS011;31595;51.418;7.572;2022-11-30T09:44:59;46.58;;;30.23;;
45887;SDS011;31595;51.418;7.572;2022-11-30T09:47:33;50.58;;;31.30;;
45887;SDS011;31595;51.418;7.572;2022-11-30T09:50:15;46.40;;;29.08;;
45887;SDS011;31595;51.418;7.572;2022-11-30T09:52:47;46.45;;;30.23;;
45887;SDS011;31595;51.418;7.572;2022-11-30T09:55:21;43.30;;;28.02;;
45887;SDS011;31595;51.418;7.572;2022-11-30T09:57:53;44.15;;;28.58;;
45887;SDS011;31595;51.418;7.572;2022-11-30T10:00:23;41.85;;;29.00;;
45887;SDS011;31595;51.418;7.572;2022-11-30T10:02:51;43.28;;;27.77;;
45887;SDS011;31595;51.418;7.572;2022-11-30T10:05:21;40.38;;;26.23;;
45887;SDS011;31595;51.418;7.572;2022-11-30T10:07:57;41.72;;;27.05;;
45887;SDS011;31595;51.418;7.572;2022-11-30T10:10:38;39.67;;;26.40;;
45887;SDS011;31595;51.418;7.572;2022-11-30T10:13:12;41.38;;;25.73;;
45887;SDS011;31595;51.418;7.572;2022-11-30T10:15:52;36.70;;;25.50;;
45887;SDS011;31595;51.418;7.572;2022-11-30T10:18:32;37.35;;;25.70;;
45887;SDS011;31595;51.418;7.572;2022-11-30T10:21:12;38.50;;;26.88;;
45887;SDS011;31595;51.418;7.572;2022-11-30T10:23:50;33.10;;;22.30;;
45887;SDS011;31595;51.418;7.572;2022-11-30T10:28:58;35.88;;;24.60;;
45887;SDS011;31595;51.418;7.572;2022-11-30T10:31:33;31.30;;;21.45;;
45887;SDS011;31595;51.418;7.572;2022-11-30T10:34:02;37.25;;;24.65;;
45887;SDS011;31595;51.418;7.572;2022-11-30T10:36:40;35.40;;;24.02;;
45887;SDS011;31595;51.418;7.572;2022-11-30T10:39:13;39.13;;;24.45;;
45887;SDS011;31595;51.418;7.572;2022-11-30T10:41:46;38.42;;;24.55;;
45887;SDS011;31595;51.418;7.572;2022-11-30T10:44:18;37.92;;;24.52;;
45887;SDS011;31595;51.418;7.572;2022-11-30T10:46:51;38.72;;;25.50;;
45887;SDS011;31595;51.418;7.572;2022-11-30T10:49:22;38.13;;;24.52;;
45887;SDS011;31595;51.418;7.572;2022-11-30T10:51:56;32.75;;;21.98;;
45887;SDS011;31595;51.418;7.572;2022-11-30T10:54:27;30.83;;;21.83;;
45887;SDS011;31595;51.418;7.572;2022-11-30T10:56:56;26.97;;;20.40;;
45887;SDS011;31595;51.418;7.572;2022-11-30T10:59:26;30.73;;;21.50;;
45887;SDS011;31595;51.418;7.572;2022-11-30T11:02:03;26.23;;;19.70;;
45887;SDS011;31595;51.418;7.572;2022-11-30T11:04:48;29.75;;;20.17;;
45887;SDS011;31595;51.418;7.572;2022-11-30T11:07:45;27.95;;;19.20;;
45887;SDS011;31595;51.418;7.572;2022-11-30T11:10:16;30.80;;;22.95;;
45887;SDS011;31595;51.418;7.572;2022-11-30T11:12:46;27.00;;;19.95;;
45887;SDS011;31595;51.418;7.572;2022-11-30T11:15:19;26.40;;;20.05;;
45887;SDS011;31595;51.418;7.572;2022-11-30T11:17:48;24.20;;;18.13;;
45887;SDS011;31595;51.418;7.572;2022-11-30T11:20:27;24.48;;;17.95;;
45887;SDS011;31595;51.418;7.572;2022-11-30T11:22:59;29.67;;;19.85;;
45887;SDS011;31595;51.418;7.572;2022-11-30T11:25:30;25.65;;;19.30;;
45887;SDS011;31595;51.418;7.572;2022-11-30T11:28:02;22.52;;;16.83;;
45887;SDS011;31595;51.418;7.572;2022-11-30T11:30:33;24.67;;;17.77;;
45887;SDS011;31595;51.418;7.572;2022-11-30T11:33:04;24.75;;;18.25;;
45887;SDS011;31595;51.418;7.572;2022-11-30T11:35:46;23.40;;;16.70;;
45887;SDS011;31595;51.418;7.572;2022-11-30T11:38:20;22.98;;;16.88;;
45887;SDS011;31595;51.418;7.572;2022-11-30T11:40:52;21.42;;;15.68;;
45887;SDS011;31595;51.418;7.572;2022-11-30T11:43:22;20.85;;;14.95;;
45887;SDS011;31595;51.418;7.572;2022-11-30T11:45:51;16.02;;;13.27;;
45887;SDS011;31595;51.418;7.572;2022-11-30T11:48:25;21.27;;;14.27;;
45887;SDS011;31595;51.418;7.572;2022-11-30T11:50:57;16.50;;;13.32;;
45887;SDS011;31595;51.418;7.572;2022-11-30T11:53:35;23.50;;;14.52;;
45887;SDS011;31595;51.418;7.572;2022-11-30T11:56:08;17.00;;;12.75;;
45887;SDS011;31595;51.418;7.572;2022-11-30T11:58:40;15.38;;;11.02;;
45887;SDS011;31595;51.418;7.572;2022-11-30T12:01:10;13.82;;;10.23;;
45887;SDS011;31595;51.418;7.572;2022-11-30T12:03:44;15.43;;;12.57;;
45887;SDS011;31595;51.418;7.572;2022-11-30T12:06:22;16.15;;;11.85;;
45887;SDS011;31595;51.418;7.572;2022-11-30T12:08:51;13.63;;;11.00;;
45887;SDS011;31595;51.418;7.572;2022-11-30T12:11:23;13.85;;;10.70;;
45887;SDS011;31595;51.418;7.572;2022-11-30T12:13:54;14.13;;;10.40;;
45887;SDS011;31595;51.418;7.572;2022-11-30T12:16:24;14.35;;;10.95;;
45887;SDS011;31595;51.418;7.572;2022-11-30T12:19:02;12.82;;;9.75;;
45887;SDS011;31595;51.418;7.572;2022-11-30T12:21:46;13.70;;;10.23;;
45887;SDS011;31595;51.418;7.572;2022-11-30T12:24:27;13.15;;;10.07;;
45887;SDS011;31595;51.418;7.572;2022-11-30T12:27:10;15.30;;;10.98;;
45887;SDS011;31595;51.418;7.572;2022-11-30T12:29:49;15.38;;;10.38;;
45887;SDS011;31595;51.418;7.572;2022-11-30T12:32:28;15.18;;;10.20;;
45887;SDS011;31595;51.418;7.572;2022-11-30T12:35:09;16.58;;;10.50;;
45887;SDS011;31595;51.418;7.572;2022-11-30T12:37:47;14.85;;;10.13;;
45887;SDS011;31595;51.418;7.572;2022-11-30T12:40:32;16.67;;;11.15;;
45887;SDS011;31595;51.418;7.572;2022-11-30T12:43:11;13.75;;;9.55;;
45887;SDS011;31595;51.418;7.572;2022-11-30T12:45:46;14.65;;;9.73;;
45887;SDS011;31595;51.418;7.572;2022-11-30T12:48:21;15.70;;;9.82;;
45887;SDS011;31595;51.418;7.572;2022-11-30T12:51:02;13.55;;;10.15;;
45887;SDS011;31595;51.418;7.572;2022-11-30T12:53:38;13.15;;;9.82;;
45887;SDS011;31595;51.418;7.572;2022-11-30T12:56:15;13.60;;;8.98;;
45887;SDS011;31595;51.418;7.572;2022-11-30T12:58:53;11.75;;;8.77;;
45887;SDS011;31595;51.418;7.572;2022-11-30T13:01:35;13.75;;;8.85;;
45887;SDS011;31595;51.418;7.572;2022-11-30T13:04:17;14.40;;;10.35;;
45887;SDS011;31595;51.418;7.572;2022-11-30T13:06:47;12.40;;;8.70;;
45887;SDS011;31595;51.418;7.572;2022-11-30T13:09:21;11.60;;;8.27;;
45887;SDS011;31595;51.418;7.572;2022-11-30T13:11:55;10.90;;;8.05;;
45887;SDS011;31595;51.418;7.572;2022-11-30T13:14:26;13.98;;;9.43;;
45887;SDS011;31595;51.418;7.572;2022-11-30T13:16:57;10.38;;;7.82;;
45887;SDS011;31595;51.418;7.572;2022-11-30T13:19:36;11.13;;;7.78;;
45887;SDS011;31595;51.418;7.572;2022-11-30T13:22:16;9.00;;;7.15;;
45887;SDS011;31595;51.418;7.572;2022-11-30T13:24:52;11.05;;;6.47;;
45887;SDS011;31595;51.418;7.572;2022-11-30T13:27:28;10.48;;;7.40;;
45887;SDS011;31595;51.418;7.572;2022-11-30T13:30:02;9.00;;;6.68;;
45887;SDS011;31595;51.418;7.572;2022-11-30T13:32:42;9.77;;;7.28;;
45887;SDS011;31595;51.418;7.572;2022-11-30T13:38:18;9.93;;;7.32;;
45887;SDS011;31595;51.418;7.572;2022-11-30T13:40:53;9.00;;;7.03;;
45887;SDS011;31595;51.418;7.572;2022-11-30T13:43:27;8.32;;;6.45;;
45887;SDS011;31595;51.418;7.572;2022-11-30T13:46:03;9.82;;;7.00;;
45887;SDS011;31595;51.418;7.572;2022-11-30T13:48:32;9.38;;;7.00;;
45887;SDS011;31595;51.418;7.572;2022-11-30T13:51:05;8.18;;;6.00;;
45887;SDS011;31595;51.418;7.572;2022-11-30T13:53:33;10.40;;;7.25;;
45887;SDS011;31595;51.418;7.572;2022-11-30T13:56:04;7.78;;;6.03;;
45887;SDS011;31595;51.418;7.572;2022-11-30T14:01:26;8.93;;;6.50;;
45887;SDS011;31595;51.418;7.572;2022-11-30T14:04:20;7.25;;;5.88;;
45887;SDS011;31595;51.418;7.572;2022-11-30T14:06:57;7.88;;;5.72;;
45887;SDS011;31595;51.418;7.572;2022-11-30T14:15:28;7.57;;;5.70;;
45887;SDS011;31595;51.418;7.572;2022-11-30T14:18:20;5.57;;;4.40;;
45887;SDS011;31595;51.418;7.572;2022-11-30T14:20:51;7.75;;;5.40;;
45887;SDS011;31595;51.418;7.572;2022-11-30T14:23:23;6.50;;;4.97;;
45887;SDS011;31595;51.418;7.572;2022-11-30T14:25:56;6.93;;;5.60;;
45887;SDS011;31595;51.418;7.572;2022-11-30T14:28:28;6.35;;;5.20;;
45887;SDS011;31595;51.418;7.572;2022-11-30T14:31:03;7.93;;;6.10;;
45887;SDS011;31595;51.418;7.572;2022-11-30T14:33:37;7.18;;;5.90;;
45887;SDS011;31595;51.418;7.572;2022-11-30T14:36:07;7.43;;;6.35;;
45887;SDS011;31595;51.418;7.572;2022-11-30T14:38:37;7.90;;;6.10;;
